Capitol Logistics 866


EBLG
Liège Airport
Liege, BE
GOBD
Blaise Diagne International Airport
Dakar, SN

Route Details

Aircraft Information
Primary: Boeing 767-300BDSF
Backup: Not Available
Route Data
Distance: 2516nm
Sched. Duration: 4h 45m
Avg. Duration: 6h 45m (+200m)
Times Flown: 5
Recm'd Route: Not Available
Planned Altitude: 34,000ft
Origin Wx: EBLG 271150Z 11010KT 9999 -RA FEW006 BKN008 02/01 Q0992 TEMPO 4000 -SNRA
Dest. Wx: GOBD 271200Z 07013KT 8000 NSC 34/05 Q1012 NOSIG
Notes:

Financial History
Total Freight: 506,826lbs
Average Load: 101,365lbs/flt
Fuel Used: 361,103lbs
Avg. Fuel Used: 72,221lbs/flt
Fuel Expense: $400,824
Avg. Fuel Expense: $80,165
Avg. Fuel Cost: $1.11/lbs
Total Gross Income: $4,802,801
Pilot Pay: $1,185
Total Expenses: $518,963
Total Revenue: $3,875,132
Average Revenue: $960,560.28